Time;durP1;ratioP1;P1;durP2;ratioP2;P2;SDS_P1;SDS_P2;PMS_P1;PMS_P2;Temp;Humidity;BMP_temperature;BMP_pressure;BME280_temperature;BME280_humidity;BME280_pressure;Samples;Min_cycle;Max_cycle;Signal;HPM_P1;HPM_P2
2021/04/23 00:00:40;;;;;;;10.83;6.43;;;8.20;99.90;;;;;;5071021;28;20485;-49
2021/04/23 00:03:17;;;;;;;15.57;8.87;;;8.30;99.90;;;;;;5071423;28;20932;-49
2021/04/23 00:05:45;;;;;;;15.80;9.57;;;8.30;99.90;;;;;;5071233;28;21177;-49
2021/04/23 00:08:12;;;;;;;16.70;10.20;;;8.30;99.90;;;;;;5072339;28;20473;-48
2021/04/23 00:10:39;;;;;;;17.60;11.70;;;8.20;99.90;;;;;;5070127;28;20462;-48
2021/04/23 00:13:06;;;;;;;21.53;12.43;;;8.30;99.90;;;;;;5070149;28;20463;-50
2021/04/23 00:15:33;;;;;;;24.43;13.73;;;8.20;99.90;;;;;;5068118;28;21026;-49
2021/04/23 00:18:00;;;;;;;26.37;14.10;;;8.10;99.90;;;;;;5070521;28;20458;-49
2021/04/23 00:20:28;;;;;;;23.77;14.03;;;8.00;99.90;;;;;;5071073;28;20474;-50
2021/04/23 00:22:56;;;;;;;22.33;14.57;;;7.90;99.90;;;;;;5070287;28;20453;-50
2021/04/23 00:25:27;;;;;;;25.77;14.53;;;7.80;99.90;;;;;;5080934;28;20446;-48
2021/04/23 00:27:56;;;;;;;26.20;15.50;;;7.70;99.90;;;;;;5079326;28;20591;-49
2021/04/23 00:30:25;;;;;;;24.10;14.73;;;7.70;99.90;;;;;;5067767;28;20493;-49
2021/04/23 00:32:53;;;;;;;28.70;15.10;;;7.80;99.90;;;;;;5070891;28;20829;-49
2021/04/23 00:35:21;;;;;;;26.90;15.17;;;7.80;99.90;;;;;;5071300;28;20538;-48
2021/04/23 00:37:48;;;;;;;27.83;15.03;;;7.60;99.90;;;;;;5070337;28;20466;-49
2021/04/23 00:40:20;;;;;;;31.00;16.27;;;7.70;99.90;;;;;;5071087;28;20483;-49
2021/04/23 00:42:47;;;;;;;29.60;15.40;;;7.70;99.90;;;;;;5077772;28;20452;-49
2021/04/23 00:45:16;;;;;;;25.50;16.20;;;7.80;99.90;;;;;;5066544;28;20454;-48
2021/04/23 00:47:45;;;;;;;28.93;15.80;;;7.80;99.90;;;;;;5052443;28;20444;-49
2021/04/23 00:50:15;;;;;;;28.90;17.40;;;7.60;99.90;;;;;;5050998;28;20995;-48
2021/04/23 00:52:44;;;;;;;27.40;16.10;;;7.40;99.90;;;;;;5051054;28;20454;-49
2021/04/23 00:55:12;;;;;;;25.10;15.00;;;7.40;99.90;;;;;;5050908;28;20451;-49
2021/04/23 00:57:41;;;;;;;38.13;16.13;;;7.50;99.90;;;;;;5056128;28;20451;-48
2021/04/23 01:00:09;;;;;;;24.83;14.97;;;7.50;99.90;;;;;;5071246;28;20513;-48
2021/04/23 01:02:40;;;;;;;27.17;14.67;;;7.60;99.90;;;;;;5051473;28;20456;-50
2021/04/23 01:05:08;;;;;;;23.90;14.20;;;7.80;99.90;;;;;;5050893;28;20452;-49
2021/04/23 01:07:36;;;;;;;28.20;15.20;;;7.90;99.90;;;;;;5071991;28;20452;-49
2021/04/23 01:10:04;;;;;;;26.43;15.87;;;7.60;99.90;;;;;;5060101;28;21043;-49
2021/04/23 01:12:31;;;;;;;27.37;15.87;;;7.60;99.90;;;;;;5054599;28;20454;-48
2021/04/23 01:14:57;;;;;;;28.80;17.10;;;7.40;99.90;;;;;;5071649;28;20514;-49
2021/04/23 01:17:24;;;;;;;29.70;16.00;;;7.30;99.90;;;;;;5092349;28;20458;-48
2021/04/23 01:19:51;;;;;;;25.70;15.70;;;7.30;99.90;;;;;;5074092;28;20494;-50
2021/04/23 01:22:19;;;;;;;26.17;15.23;;;7.40;99.90;;;;;;5074352;28;20869;-50
2021/04/23 01:24:45;;;;;;;26.90;14.60;;;7.50;99.90;;;;;;5055422;28;20455;-48
2021/04/23 01:27:12;;;;;;;25.93;15.03;;;7.70;99.90;;;;;;5054246;28;20460;-49
2021/04/23 01:29:38;;;;;;;25.33;14.50;;;7.60;99.90;;;;;;5073751;28;20507;-48
2021/04/23 01:32:05;;;;;;;24.70;15.20;;;7.70;99.90;;;;;;5084813;28;20542;-49
2021/04/23 01:34:37;;;;;;;25.30;14.23;;;7.70;99.90;;;;;;5088038;28;20447;-49
2021/04/23 01:37:07;;;;;;;24.27;15.53;;;7.70;99.90;;;;;;5054198;28;20448;-50
2021/04/23 01:39:37;;;;;;;26.17;15.90;;;7.70;99.90;;;;;;5054584;28;20479;-47
2021/04/23 01:42:05;;;;;;;26.10;15.47;;;7.70;99.90;;;;;;5054077;28;20452;-49
2021/04/23 01:44:33;;;;;;;24.43;14.87;;;7.40;99.90;;;;;;5065277;28;20964;-49
2021/04/23 01:47:01;;;;;;;25.33;15.97;;;7.60;99.90;;;;;;5053828;28;20464;-49
2021/04/23 01:49:28;;;;;;;26.27;15.43;;;7.70;99.90;;;;;;5084704;28;20959;-49
2021/04/23 01:51:58;;;;;;;24.23;16.00;;;7.60;99.90;;;;;;5094023;28;20457;-49
2021/04/23 01:54:27;;;;;;;28.13;16.50;;;7.60;99.90;;;;;;5076032;28;20438;-49
2021/04/23 01:56:56;;;;;;;26.87;15.20;;;7.50;99.90;;;;;;5053842;28;20456;-48
2021/04/23 01:59:24;;;;;;;32.87;17.30;;;7.50;99.90;;;;;;5053453;28;20481;-48
2021/04/23 02:01:51;;;;;;;29.90;17.73;;;7.50;99.90;;;;;;5053671;28;20448;-49
2021/04/23 02:04:20;;;;;;;25.90;15.40;;;7.50;99.90;;;;;;5057109;28;20833;-50
2021/04/23 02:06:47;;;;;;;28.97;16.03;;;7.40;99.90;;;;;;5054600;28;20831;-48
2021/04/23 02:09:14;;;;;;;29.97;15.70;;;7.10;99.90;;;;;;5053569;28;20468;-50
2021/04/23 02:11:43;;;;;;;27.67;16.30;;;6.80;99.90;;;;;;5055561;28;20448;-49
2021/04/23 02:14:11;;;;;;;30.33;17.50;;;6.60;99.90;;;;;;5070343;28;20818;-50
2021/04/23 02:16:38;;;;;;;27.50;16.40;;;6.70;99.90;;;;;;5053273;28;20483;-49
2021/04/23 02:19:06;;;;;;;27.20;15.70;;;6.60;99.90;;;;;;5052868;28;20996;-48
2021/04/23 02:21:33;;;;;;;29.97;16.63;;;6.50;99.90;;;;;;5058735;28;20502;-47
2021/04/23 02:23:59;;;;;;;27.57;16.00;;;6.50;99.90;;;;;;5073408;28;20450;-49
2021/04/23 02:26:26;;;;;;;25.20;15.47;;;6.70;99.90;;;;;;5069178;28;20505;-49
2021/04/23 02:28:53;;;;;;;27.90;14.97;;;6.90;99.90;;;;;;5053285;28;20467;-49
2021/04/23 02:31:24;;;;;;;25.40;14.97;;;7.10;99.90;;;;;;5070356;28;20457;-49
2021/04/23 02:33:54;;;;;;;27.40;15.60;;;7.10;99.90;;;;;;5072447;28;20462;-48
2021/04/23 02:36:21;;;;;;;25.50;14.93;;;7.20;99.90;;;;;;5071706;28;20448;-48
2021/04/23 02:38:48;;;;;;;27.40;15.70;;;7.10;99.90;;;;;;5082497;28;20998;-49
2021/04/23 02:41:16;;;;;;;24.07;14.93;;;7.10;99.90;;;;;;5081974;28;20480;-49
2021/04/23 02:43:46;;;;;;;26.20;14.37;;;7.30;99.90;;;;;;5056893;28;20472;-49
2021/04/23 02:46:14;;;;;;;26.03;15.43;;;7.10;99.90;;;;;;5073222;28;20443;-49
2021/04/23 02:48:45;;;;;;;23.97;14.63;;;7.00;99.90;;;;;;5072343;28;20524;-49
2021/04/23 02:51:14;;;;;;;24.03;15.23;;;7.00;99.90;;;;;;5072944;28;20451;-49
2021/04/23 02:53:40;;;;;;;23.80;14.83;;;7.00;99.90;;;;;;5072874;28;20937;-49
2021/04/23 02:56:09;;;;;;;25.67;14.77;;;6.90;99.90;;;;;;5074054;28;20443;-49
2021/04/23 02:58:36;;;;;;;25.70;15.10;;;7.10;99.90;;;;;;5052604;28;20495;-48
2021/04/23 03:01:08;;;;;;;26.73;15.10;;;7.10;99.90;;;;;;5053022;28;20483;-50
2021/04/23 03:03:35;;;;;;;27.27;14.77;;;7.00;99.90;;;;;;5061450;28;20477;-49
2021/04/23 03:06:03;;;;;;;25.07;15.13;;;7.10;99.90;;;;;;5052962;28;20458;-48
2021/04/23 03:08:30;;;;;;;28.07;15.77;;;7.00;99.90;;;;;;5054565;28;20490;-49
2021/04/23 03:10:59;;;;;;;24.27;16.10;;;6.90;99.90;;;;;;5072606;28;20554;-49
2021/04/23 03:13:27;;;;;;;23.87;14.73;;;6.90;99.90;;;;;;5072646;28;20913;-49
2021/04/23 03:15:56;;;;;;;25.57;14.27;;;6.90;99.90;;;;;;5052884;28;21194;-49
2021/04/23 03:18:24;;;;;;;28.40;15.33;;;7.00;99.90;;;;;;5052123;28;20495;-48
2021/04/23 03:20:54;;;;;;;23.87;14.90;;;6.90;99.90;;;;;;5052381;28;20486;-49
2021/04/23 03:23:22;;;;;;;26.60;15.27;;;6.90;99.90;;;;;;5052202;28;20448;-49
2021/04/23 03:25:49;;;;;;;30.93;14.57;;;7.00;99.90;;;;;;5067491;28;20447;-49
2021/04/23 03:28:16;;;;;;;25.03;13.90;;;7.00;99.90;;;;;;5055713;28;20476;-50
2021/04/23 03:30:44;;;;;;;25.57;15.27;;;6.70;99.90;;;;;;5070872;28;20525;-48
2021/04/23 03:33:13;;;;;;;23.63;14.37;;;6.80;99.90;;;;;;5072214;28;20442;-49
2021/04/23 03:35:41;;;;;;;24.03;14.90;;;6.80;99.90;;;;;;5065868;28;20451;-49
2021/04/23 03:38:09;;;;;;;24.67;15.40;;;6.70;99.90;;;;;;5062154;28;20511;-49
2021/04/23 03:40:40;;;;;;;25.77;14.17;;;6.70;99.90;;;;;;5072182;28;20486;-49
2021/04/23 03:43:07;;;;;;;26.13;14.40;;;6.80;99.90;;;;;;5068770;28;20455;-48
2021/04/23 03:45:35;;;;;;;24.53;13.67;;;6.80;99.90;;;;;;5062590;28;20446;-49
2021/04/23 03:48:02;;;;;;;25.57;14.73;;;6.70;99.90;;;;;;5091266;28;20998;-49
2021/04/23 03:50:31;;;;;;;23.60;13.47;;;6.70;99.90;;;;;;5092245;28;20446;-49
2021/04/23 03:52:59;;;;;;;21.60;13.27;;;6.60;99.90;;;;;;5092009;28;20446;-49
2021/04/23 03:55:31;;;;;;;26.33;13.30;;;6.70;99.90;;;;;;5071742;28;20443;-48
2021/04/23 03:58:00;;;;;;;23.57;13.83;;;6.70;99.90;;;;;;5051235;28;20466;-49
2021/04/23 04:00:30;;;;;;;23.10;13.33;;;6.70;99.90;;;;;;5061861;28;20474;-49
2021/04/23 04:02:57;;;;;;;20.23;13.10;;;6.70;99.90;;;;;;5060753;28;20975;-49
2021/04/23 04:05:24;;;;;;;23.17;13.40;;;6.70;99.90;;;;;;5051526;28;20459;-47
2021/04/23 04:07:50;;;;;;;24.43;12.20;;;6.60;99.90;;;;;;5051365;28;20797;-50
2021/04/23 04:10:19;;;;;;;20.60;11.60;;;6.60;99.90;;;;;;5069263;28;20442;-50
2021/04/23 04:12:46;;;;;;;19.53;10.60;;;6.60;99.90;;;;;;5069617;28;20454;-50
2021/04/23 04:15:14;;;;;;;19.30;10.30;;;6.60;99.90;;;;;;5071476;28;20450;-49
2021/04/23 04:17:41;;;;;;;14.70;7.90;;;6.40;99.90;;;;;;5071017;28;20468;-48
2021/04/23 04:20:10;;;;;;;12.03;7.27;;;6.10;99.90;;;;;;5085949;28;20546;-49
2021/04/23 04:22:37;;;;;;;10.70;6.60;;;6.20;99.90;;;;;;5085745;28;20439;-49
2021/04/23 04:25:04;;;;;;;11.80;7.20;;;6.30;99.90;;;;;;5051305;28;20451;-49
2021/04/23 04:27:30;;;;;;;12.80;7.23;;;6.40;99.90;;;;;;5051148;28;20455;-47
2021/04/23 04:29:57;;;;;;;12.43;7.67;;;6.40;99.90;;;;;;5054203;28;20520;-49
2021/04/23 04:32:25;;;;;;;12.70;7.10;;;6.50;99.90;;;;;;5070586;28;20462;-50
2021/04/23 04:34:51;;;;;;;10.43;6.70;;;6.60;99.90;;;;;;5072594;28;20994;-49
2021/04/23 04:37:18;;;;;;;11.47;7.17;;;6.60;99.90;;;;;;5071494;28;20451;-49
2021/04/23 04:39:44;;;;;;;11.80;6.87;;;6.60;99.90;;;;;;5069864;28;20894;-49
2021/04/23 04:42:11;;;;;;;14.97;6.73;;;6.70;99.90;;;;;;5074801;28;20456;-49
2021/04/23 04:44:38;;;;;;;12.60;6.93;;;6.80;99.90;;;;;;5064545;28;20456;-49
2021/04/23 04:47:05;;;;;;;14.80;7.53;;;6.90;99.90;;;;;;5057034;28;20494;-49
2021/04/23 04:49:32;;;;;;;9.83;6.57;;;6.90;99.90;;;;;;5066347;28;21054;-49
2021/04/23 04:51:59;;;;;;;12.17;6.40;;;7.00;99.90;;;;;;5059931;28;20454;-49
2021/04/23 04:54:25;;;;;;;14.20;7.53;;;7.10;99.90;;;;;;5074963;28;20509;-49
2021/04/23 04:56:52;;;;;;;11.07;6.63;;;7.20;99.90;;;;;;5068175;28;20440;-49
2021/04/23 04:59:19;;;;;;;12.80;7.60;;;7.20;99.90;;;;;;5069208;28;20475;-48
2021/04/23 05:01:46;;;;;;;12.27;7.10;;;7.30;99.90;;;;;;5075355;28;20533;-49
2021/04/23 05:04:13;;;;;;;12.37;7.17;;;7.30;99.90;;;;;;5075424;28;20454;-49
2021/04/23 05:06:40;;;;;;;14.97;7.17;;;7.30;99.90;;;;;;5075335;28;20450;-49
2021/04/23 05:09:07;;;;;;;15.77;7.03;;;7.40;99.90;;;;;;5074908;28;20482;-49
2021/04/23 05:11:35;;;;;;;16.50;8.17;;;7.40;99.90;;;;;;5074980;28;20444;-48
2021/04/23 05:14:02;;;;;;;19.10;10.57;;;7.50;99.90;;;;;;5073092;28;20890;-48
2021/04/23 05:16:29;;;;;;;14.53;9.33;;;7.70;99.90;;;;;;5059445;28;20497;-49
2021/04/23 05:18:56;;;;;;;18.90;10.80;;;8.00;99.90;;;;;;5071228;28;20494;-50
2021/04/23 05:21:24;;;;;;;19.10;11.20;;;8.40;99.90;;;;;;5072604;28;20486;-51
2021/04/23 05:23:52;;;;;;;17.57;10.10;;;9.00;99.90;;;;;;5073010;28;20446;-50
2021/04/23 05:26:18;;;;;;;18.93;10.67;;;9.60;99.90;;;;;;5065046;28;20507;-50
2021/04/23 05:28:45;;;;;;;16.17;9.70;;;10.10;99.90;;;;;;5089710;22;20878;-52
2021/04/23 05:31:12;;;;;;;17.60;11.30;;;10.70;99.90;;;;;;5073808;28;20471;-52
2021/04/23 05:33:38;;;;;;;15.63;9.93;;;10.90;99.90;;;;;;5073160;28;20978;-52
2021/04/23 05:36:05;;;;;;;16.10;10.70;;;11.50;99.90;;;;;;5073672;28;20454;-51
2021/04/23 05:38:32;;;;;;;20.30;12.97;;;11.90;99.90;;;;;;5061232;28;20533;-52
2021/04/23 05:40:59;;;;;;;16.83;11.67;;;12.20;99.90;;;;;;5039676;28;20487;-52
2021/04/23 05:43:26;;;;;;;20.43;11.80;;;12.60;99.90;;;;;;5053254;28;20460;-52
2021/04/23 05:45:52;;;;;;;17.33;12.00;;;12.90;99.90;;;;;;5053793;28;20488;-52
2021/04/23 05:48:19;;;;;;;16.80;12.23;;;13.20;99.90;;;;;;5053696;28;20471;-52
2021/04/23 05:50:48;;;;;;;14.93;11.13;;;13.50;99.90;;;;;;5053593;28;20820;-52
2021/04/23 05:53:15;;;;;;;18.23;11.60;;;13.70;99.90;;;;;;5053774;28;20448;-52
2021/04/23 05:55:41;;;;;;;17.60;11.13;;;13.90;99.90;;;;;;5052591;28;20501;-52
2021/04/23 05:58:10;;;;;;;17.87;11.63;;;14.30;99.90;;;;;;5052067;28;20533;-52
2021/04/23 06:00:40;;;;;;;17.80;13.00;;;14.50;99.90;;;;;;5044669;28;20476;-52
2021/04/23 06:03:07;;;;;;;18.57;13.17;;;14.80;99.90;;;;;;5053524;28;20456;-52
2021/04/23 06:05:34;;;;;;;20.90;14.27;;;14.80;99.90;;;;;;5052989;28;20538;-52
2021/04/23 06:08:04;;;;;;;21.03;13.77;;;14.60;99.90;;;;;;5053432;28;20486;-52
2021/04/23 06:10:31;;;;;;;18.73;13.93;;;14.60;99.90;;;;;;5044393;28;20511;-52
2021/04/23 06:12:58;;;;;;;19.90;14.13;;;14.60;99.90;;;;;;5033606;28;20456;-52
2021/04/23 06:15:27;;;;;;;19.30;13.53;;;14.80;99.90;;;;;;5033665;28;20456;-52
2021/04/23 06:17:58;;;;;;;21.87;13.47;;;15.10;99.90;;;;;;5035051;28;21094;-52
2021/04/23 06:20:28;;;;;;;18.60;13.00;;;15.20;99.90;;;;;;5058013;28;20486;-52
2021/04/23 06:22:55;;;;;;;23.07;13.50;;;15.50;99.90;;;;;;5053900;28;20454;-52
2021/04/23 06:25:22;;;;;;;21.73;13.00;;;15.80;99.90;;;;;;5053182;28;20451;-52
2021/04/23 06:27:51;;;;;;;18.03;12.77;;;16.10;99.90;;;;;;5052913;28;20861;-52
2021/04/23 06:30:20;;;;;;;22.13;12.90;;;16.30;99.70;;;;;;5053337;28;20455;-52
2021/04/23 06:32:49;;;;;;;17.87;11.90;;;15.90;99.70;;;;;;5051896;28;20460;-53
2021/04/23 06:35:19;;;;;;;18.70;12.47;;;16.00;99.20;;;;;;5044305;28;20444;-53
2021/04/23 06:37:45;;;;;;;17.67;11.80;;;16.20;98.70;;;;;;5049353;28;20519;-53
2021/04/23 06:40:13;;;;;;;24.63;13.27;;;16.70;98.40;;;;;;5062107;28;20562;-52
2021/04/23 06:42:40;;;;;;;18.03;12.13;;;16.90;98.50;;;;;;5061709;28;20953;-53
2021/04/23 06:45:10;;;;;;;20.00;12.60;;;16.90;97.90;;;;;;5053143;28;20470;-53
2021/04/23 06:47:36;;;;;;;15.00;11.60;;;17.10;97.50;;;;;;5052599;28;20460;-53
2021/04/23 06:50:07;;;;;;;17.50;12.13;;;16.90;97.10;;;;;;5052431;28;20440;-53
2021/04/23 06:52:34;;;;;;;20.57;13.50;;;17.10;98.00;;;;;;5052882;28;20869;-53
2021/04/23 06:55:00;;;;;;;20.20;13.50;;;17.00;96.50;;;;;;5052531;28;20443;-53
2021/04/23 06:57:27;;;;;;;23.80;15.70;;;17.50;96.30;;;;;;5052614;28;20471;-52
2021/04/23 06:59:53;;;;;;;20.17;15.03;;;16.50;97.30;;;;;;5052153;28;20448;-53
2021/04/23 07:02:20;;;;;;;20.77;14.03;;;16.80;96.70;;;;;;5061141;28;20506;-53
2021/04/23 07:04:46;;;;;;;21.40;14.33;;;17.10;96.50;;;;;;5071828;28;20821;-53
2021/04/23 07:07:14;;;;;;;21.60;14.50;;;17.30;95.80;;;;;;5071621;28;20878;-53
2021/04/23 07:09:40;;;;;;;18.20;12.77;;;17.60;97.10;;;;;;5032658;28;20495;-53
2021/04/23 07:12:07;;;;;;;22.67;14.60;;;18.10;95.10;;;;;;5037382;28;20509;-53
2021/04/23 07:14:35;;;;;;;15.00;12.00;;;18.70;94.40;;;;;;5052603;28;20578;-53
2021/04/23 07:17:01;;;;;;;18.70;13.57;;;18.60;95.70;;;;;;5052506;28;20506;-53
2021/04/23 07:19:28;;;;;;;20.73;13.80;;;18.70;93.10;;;;;;5051614;28;20502;-53
2021/04/23 07:21:54;;;;;;;17.37;13.17;;;18.60;94.30;;;;;;5051947;28;20475;-53
2021/04/23 07:24:21;;;;;;;19.37;14.40;;;18.70;94.70;;;;;;5051768;28;20510;-53
2021/04/23 07:26:48;;;;;;;19.07;14.30;;;18.60;95.90;;;;;;5051642;28;20451;-53
2021/04/23 07:29:14;;;;;;;20.20;14.60;;;18.70;96.10;;;;;;5051265;28;20483;-53
2021/04/23 07:31:41;;;;;;;19.30;15.03;;;18.70;95.50;;;;;;5031098;28;20455;-53
2021/04/23 07:34:07;;;;;;;18.77;13.70;;;18.10;96.30;;;;;;5056583;28;20468;-53
2021/04/23 07:36:34;;;;;;;24.13;14.05;;;17.80;96.60;;;;;;5053844;28;20962;-53
2021/04/23 07:39:00;;;;;;;18.40;13.03;;;18.40;94.50;;;;;;5048823;28;20376;-53
2021/04/23 07:41:28;;;;;;;18.50;14.20;;;19.10;92.90;;;;;;5051405;28;20479;-53
2021/04/23 07:43:54;;;;;;;18.93;14.00;;;18.70;93.10;;;;;;5051926;28;20444;-53
2021/04/23 07:46:20;;;;;;;18.63;13.43;;;19.10;93.20;;;;;;5050500;28;20451;-53
2021/04/23 07:48:47;;;;;;;17.07;13.07;;;19.50;92.00;;;;;;5042974;28;20467;-53
2021/04/23 07:51:14;;;;;;;16.20;13.17;;;19.80;91.30;;;;;;5050736;28;20451;-52
2021/04/23 07:53:40;;;;;;;19.00;12.57;;;19.10;91.00;;;;;;5065673;28;20453;-53
2021/04/23 07:56:07;;;;;;;16.97;11.90;;;18.90;91.40;;;;;;5068099;28;20865;-53
2021/04/23 07:58:34;;;;;;;16.83;11.10;;;19.30;91.00;;;;;;5050779;28;20471;-52
2021/04/23 08:01:00;;;;;;;16.13;11.77;;;19.60;90.00;;;;;;5045111;28;20988;-53
2021/04/23 08:03:31;;;;;;;17.00;12.20;;;19.60;90.00;;;;;;5051571;28;20486;-52
2021/04/23 08:05:57;;;;;;;20.90;12.13;;;17.30;93.60;;;;;;5050485;28;20547;-52
2021/04/23 08:08:25;;;;;;;22.07;13.93;;;16.00;96.10;;;;;;5048455;28;20475;-52
2021/04/23 08:10:51;;;;;;;21.00;13.37;;;16.70;94.40;;;;;;5050474;28;20825;-52
2021/04/23 08:13:18;;;;;;;19.83;13.37;;;17.40;94.30;;;;;;5050109;28;20452;-53
2021/04/23 08:15:45;;;;;;;16.63;12.70;;;17.50;93.70;;;;;;5050806;28;20451;-53
2021/04/23 08:18:12;;;;;;;16.37;12.63;;;17.80;93.60;;;;;;5050873;28;20468;-53
2021/04/23 08:20:38;;;;;;;20.37;13.90;;;18.30;93.10;;;;;;5063003;28;20513;-52
2021/04/23 08:23:05;;;;;;;20.87;14.03;;;18.30;93.40;;;;;;5054371;28;20452;-53
2021/04/23 08:25:32;;;;;;;15.97;13.00;;;18.80;92.90;;;;;;5051370;28;20883;-53
2021/04/23 08:27:58;;;;;;;21.20;14.30;;;19.10;92.00;;;;;;5050305;28;20537;-52
2021/04/23 08:30:27;;;;;;;20.13;13.50;;;19.00;93.10;;;;;;5051105;28;20825;-52
2021/04/23 08:32:56;;;;;;;20.27;13.87;;;17.50;94.70;;;;;;5051074;28;20960;-52
2021/04/23 08:35:22;;;;;;;20.87;14.27;;;17.10;94.10;;;;;;5050936;28;20917;-53
2021/04/23 08:37:49;;;;;;;19.23;13.57;;;17.30;94.40;;;;;;5050980;28;20472;-52
2021/04/23 08:40:18;;;;;;;19.23;13.83;;;17.90;92.70;;;;;;5050939;28;20483;-53
2021/04/23 08:42:44;;;;;;;17.87;12.27;;;17.90;95.10;;;;;;5051245;28;20521;-52
2021/04/23 08:45:14;;;;;;;21.90;13.20;;;16.80;95.80;;;;;;5050991;28;20452;-52
2021/04/23 08:47:42;;;;;;;20.87;13.03;;;16.20;96.30;;;;;;5050990;28;20463;-52
2021/04/23 08:50:11;;;;;;;16.70;11.80;;;17.00;94.70;;;;;;5050659;28;20452;-53
2021/04/23 08:52:42;;;;;;;25.20;12.50;;;18.20;92.80;;;;;;5050854;28;20889;-52
2021/04/23 08:55:10;;;;;;;19.60;10.70;;;17.00;94.30;;;;;;5051448;28;20455;-52
2021/04/23 08:57:37;;;;;;;14.67;10.10;;;16.80;96.00;;;;;;5050461;28;20471;-52
2021/04/23 09:00:05;;;;;;;14.93;10.23;;;17.90;93.10;;;;;;5050683;28;20444;-53
2021/04/23 09:02:31;;;;;;;14.30;9.97;;;18.00;94.70;;;;;;5051160;28;20451;-52
2021/04/23 09:04:58;;;;;;;15.83;10.17;;;18.00;93.50;;;;;;5050957;28;20444;-53
2021/04/23 09:07:25;;;;;;;15.23;9.93;;;18.50;96.20;;;;;;5050852;28;20474;-53
2021/04/23 09:09:52;;;;;;;14.10;9.17;;;17.50;94.50;;;;;;5050492;28;20455;-52
2021/04/23 09:12:24;;;;;;;15.70;10.13;;;16.90;95.00;;;;;;5050654;28;20444;-52
2021/04/23 09:14:52;;;;;;;14.67;10.33;;;17.40;94.30;;;;;;5050686;28;20513;-53
2021/04/23 09:17:19;;;;;;;16.67;10.27;;;17.80;93.90;;;;;;5050943;28;20444;-53
2021/04/23 09:19:46;;;;;;;13.67;8.47;;;18.60;92.20;;;;;;5050076;28;20444;-53
2021/04/23 09:22:26;;;;;;;15.00;9.90;;;18.50;93.00;;;;;;5050412;28;20545;-53
2021/04/23 09:25:00;;;;;;;13.50;10.00;;;19.40;91.10;;;;;;5050697;28;20452;-53
2021/04/23 09:27:30;;;;;;;15.30;10.80;;;19.00;91.50;;;;;;5052677;28;20530;-53
2021/04/23 09:30:00;;;;;;;15.37;10.77;;;17.90;93.90;;;;;;5054250;28;20456;-52
2021/04/23 09:32:28;;;;;;;14.97;10.70;;;16.10;95.10;;;;;;5054440;28;20451;-52
2021/04/23 09:34:57;;;;;;;20.57;11.87;;;16.00;97.10;;;;;;5054358;28;20455;-52
2021/04/23 09:37:27;;;;;;;15.10;10.87;;;15.80;95.90;;;;;;5054216;28;20479;-52
2021/04/23 09:40:07;;;;;;;17.47;11.80;;;16.10;98.20;;;;;;5054110;28;20448;-52
2021/04/23 09:42:48;;;;;;;17.83;11.97;;;16.40;97.80;;;;;;5054438;28;20457;-53
2021/04/23 09:45:16;;;;;;;19.40;13.10;;;17.00;96.80;;;;;;5054242;28;20509;-53
2021/04/23 09:47:43;;;;;;;17.13;12.00;;;17.60;97.60;;;;;;5054077;28;20498;-53
2021/04/23 09:50:11;;;;;;;18.50;12.97;;;17.90;94.20;;;;;;5053700;28;20448;-53
2021/04/23 09:52:51;;;;;;;20.67;12.50;;;17.50;94.70;;;;;;5054034;28;20531;-53
2021/04/23 09:55:19;;;;;;;15.50;11.63;;;17.50;95.60;;;;;;5053873;28;20832;-53
2021/04/23 09:57:51;;;;;;;19.00;12.50;;;17.10;94.70;;;;;;5053449;28;20528;-53
2021/04/23 10:00:19;;;;;;;14.10;10.73;;;17.50;94.50;;;;;;5053000;28;20661;-53
2021/04/23 10:02:50;;;;;;;16.20;12.00;;;18.20;94.30;;;;;;5051438;28;20634;-53
2021/04/23 10:05:31;;;;;;;19.93;13.03;;;19.20;90.30;;;;;;5053282;28;20237;-53
2021/04/23 10:07:59;;;;;;;16.60;10.97;;;18.60;92.40;;;;;;5053208;28;20521;-52
2021/04/23 10:10:26;;;;;;;14.60;11.13;;;18.40;92.30;;;;;;5053405;28;20459;-53
2021/04/23 10:12:54;;;;;;;15.90;11.00;;;18.90;91.20;;;;;;5055779;28;20822;-53
2021/04/23 10:15:22;;;;;;;15.87;11.07;;;19.00;92.10;;;;;;5061186;28;20465;-53
2021/04/23 10:17:50;;;;;;;18.90;11.57;;;18.80;91.30;;;;;;5053081;28;21042;-54
2021/04/23 10:20:20;;;;;;;15.47;10.93;;;18.40;91.80;;;;;;5069390;28;20538;-53
2021/04/23 10:22:47;;;;;;;18.90;11.10;;;18.30;92.10;;;;;;5053143;28;20455;-53
2021/04/23 10:25:15;;;;;;;14.67;10.30;;;18.00;94.00;;;;;;5052712;28;20451;-53
2021/04/23 10:27:44;;;;;;;15.07;10.67;;;18.00;91.70;;;;;;5050692;28;20476;-53
2021/04/23 10:30:13;;;;;;;18.37;9.37;;;17.60;91.90;;;;;;5054622;28;20466;-53
2021/04/23 10:32:46;;;;;;;15.03;9.17;;;17.60;92.50;;;;;;5052611;28;20459;-53
2021/04/23 10:35:14;;;;;;;13.50;9.13;;;18.10;90.20;;;;;;5053101;28;20462;-52
2021/04/23 10:37:41;;;;;;;13.47;9.07;;;17.70;91.40;;;;;;5051839;28;20467;-53
2021/04/23 10:40:09;;;;;;;13.70;9.63;;;17.70;88.90;;;;;;5052452;28;20452;-53
2021/04/23 10:42:55;;;;;;;13.43;9.83;;;17.60;93.20;;;;;;5053035;28;20448;-53
2021/04/23 10:45:35;;;;;;;13.63;10.07;;;17.80;91.70;;;;;;5052797;28;20456;-52
2021/04/23 10:48:23;;;;;;;13.53;9.50;;;18.10;92.10;;;;;;5052027;28;20517;-53
2021/04/23 10:50:52;;;;;;;13.77;8.90;;;18.10;91.60;;;;;;5050465;28;20530;-52
2021/04/23 10:53:20;;;;;;;16.30;9.97;;;18.50;87.80;;;;;;5048820;28;20558;-53
2021/04/23 10:55:49;;;;;;;14.03;9.23;;;18.30;89.10;;;;;;5051231;28;20455;-52
2021/04/23 10:58:18;;;;;;;11.97;8.70;;;18.60;89.80;;;;;;5052088;28;20468;-52
2021/04/23 11:00:47;;;;;;;13.73;9.00;;;17.90;91.10;;;;;;5052238;28;20487;-53
2021/04/23 11:03:33;;;;;;;10.60;8.00;;;18.30;87.10;;;;;;5051922;28;20463;-52
2021/04/23 11:06:03;;;;;;;12.90;8.70;;;18.30;90.90;;;;;;5051484;28;20551;-52
2021/04/23 11:08:32;;;;;;;12.03;7.93;;;18.10;88.00;;;;;;5051475;28;20486;-52
2021/04/23 11:11:18;;;;;;;13.30;8.17;;;17.80;90.30;;;;;;5034914;28;20444;-53
2021/04/23 11:13:53;;;;;;;11.87;8.07;;;18.10;81.30;;;;;;5052291;28;20462;-52
2021/04/23 11:16:31;;;;;;;11.23;7.07;;;18.00;83.40;;;;;;5049443;28;20459;-53
2021/04/23 11:18:59;;;;;;;9.60;6.73;;;18.10;91.10;;;;;;5051104;28;20472;-53
2021/04/23 11:21:42;;;;;;;13.03;7.37;;;18.10;89.60;;;;;;5051211;28;21015;-53
2021/04/23 11:24:10;;;;;;;9.90;6.17;;;17.40;82.80;;;;;;5051660;28;20450;-52
2021/04/23 11:27:04;;;;;;;9.90;6.53;;;17.70;88.10;;;;;;5049110;28;20452;-53
2021/04/23 11:29:33;;;;;;;10.93;7.20;;;17.60;87.40;;;;;;5089885;22;20494;-49
2021/04/23 11:32:11;;;;;;;10.30;6.90;;;17.90;86.00;;;;;;5076706;28;20443;-49
2021/04/23 11:34:40;;;;;;;7.70;6.10;;;17.90;88.10;;;;;;5073733;28;20443;-50
2021/04/23 11:37:09;;;;;;;13.43;7.70;;;17.80;85.30;;;;;;5072482;28;20439;-50
2021/04/23 11:39:42;;;;;;;9.97;6.33;;;17.50;84.00;;;;;;5056576;28;20490;-50
2021/04/23 11:42:20;;;;;;;8.67;5.83;;;17.90;78.20;;;;;;5052970;28;20475;-51
2021/04/23 11:44:56;;;;;;;11.03;7.10;;;17.60;81.00;;;;;;5070752;28;20527;-51
2021/04/23 11:47:32;;;;;;;11.43;5.93;;;17.80;85.40;;;;;;5057204;28;20558;-51
2021/04/23 11:50:20;;;;;;;10.43;5.70;;;17.20;78.70;;;;;;5055281;28;20471;-50
2021/04/23 11:52:49;;;;;;;8.27;5.43;;;17.40;83.70;;;;;;5061250;28;20474;-50
2021/04/23 11:55:19;;;;;;;7.50;5.70;;;17.50;84.20;;;;;;5065773;28;20452;-51
2021/04/23 11:57:47;;;;;;;10.63;6.47;;;17.60;79.90;;;;;;5051503;28;20468;-49
2021/04/23 12:00:18;;;;;;;10.80;6.23;;;17.20;81.90;;;;;;5051758;28;20448;-50
2021/04/23 12:02:56;;;;;;;9.63;5.43;;;17.30;83.10;;;;;;5051657;28;20444;-51
2021/04/23 12:05:32;;;;;;;9.13;5.20;;;17.10;78.00;;;;;;5051555;28;20457;-52
2021/04/23 12:08:02;;;;;;;9.27;5.43;;;17.00;76.70;;;;;;5050934;28;20447;-52
2021/04/23 12:10:31;;;;;;;8.77;5.00;;;16.70;78.50;;;;;;5051710;28;20450;-52
2021/04/23 12:12:57;;;;;;;14.10;5.17;;;17.20;83.60;;;;;;5051681;28;20452;-51
2021/04/23 12:15:28;;;;;;;11.10;5.40;;;17.30;78.10;;;;;;5051549;28;20466;-51
2021/04/23 12:17:59;;;;;;;8.40;4.80;;;17.20;76.90;;;;;;5050908;28;20459;-49
2021/04/23 12:20:29;;;;;;;11.43;5.40;;;16.80;76.50;;;;;;5051815;28;20448;-48
2021/04/23 12:22:56;;;;;;;8.60;5.50;;;16.80;74.80;;;;;;5051536;28;20455;-51
2021/04/23 12:25:33;;;;;;;9.73;6.00;;;17.30;80.60;;;;;;5051454;28;20831;-49
2021/04/23 12:28:22;;;;;;;9.83;5.67;;;17.10;80.00;;;;;;5050799;28;20847;-49
2021/04/23 12:30:52;;;;;;;12.90;5.70;;;17.30;80.90;;;;;;5051206;28;20956;-49
2021/04/23 12:33:19;;;;;;;11.23;5.93;;;17.30;82.60;;;;;;5051397;28;20877;-49
2021/04/23 12:35:48;;;;;;;10.50;5.87;;;17.40;81.30;;;;;;5051307;28;20447;-49
2021/04/23 12:38:36;;;;;;;7.40;4.30;;;17.30;79.90;;;;;;5050717;28;20475;-50
2021/04/23 12:41:14;;;;;;;6.80;4.87;;;17.40;70.40;;;;;;5051046;28;20483;-49
2021/04/23 12:43:41;;;;;;;9.90;5.37;;;17.40;75.40;;;;;;5051373;28;20546;-49